Terminal Aerodrome Forecast
Issued by NWS

Home | Current Version | Previous Version | Text Only | Print | Product List | Glossary On
Versions: 1 2 3 4 5 6 7 8 9 10 11 12 13 14 15 16 17 18 19 20 21 22 23 24
303
FTAK31 PAFA 042327
TAFAOM
TAF
PAOM 042327Z 0500/0524 17006KT P6SM SCT050 SCT120
     FM050300 22005KT P6SM SCT025 BKN035 OVC050=

USA.gov is the U.S. government's official web portal to all federal, state and local government web resources and services.